Nearby METAR Reports

 

LIRQ - Firenze, Italy
Distance from station: NNE 20km
Actualización: 21/04/2018 14:50
Despejado
Despejado
 Viento del NNE
Viento: NNE 20 km/h
Temperatura: 29°C
Rocío: 5°C
Humedad: 22%
Barómetro: 1017 hPa
Resumen: Despejado
Visibility: greater than 10 km
2018/04/21 12:50 LIRQ 211250Z 02011KT 350V060 CAVOK 29/05 Q1017
LIRP - Pisa, Italy
Distance from station: O 55km
Actualización: 21/04/2018 14:45
Despejado
Despejado
 Viento del ONO
Viento: ONO 20 km/h
Temperatura: 25°C
Rocío: 9°C
Humedad: 36%
Barómetro: 1018 hPa
Resumen: Despejado
Visibility: greater than 10 km
2018/04/21 12:45 LIRP 211245Z 30011KT CAVOK 25/09 Q1018 NOSIG
 
LIVC - Monte Cimone, Italy
Distance from station: NNO 69km
Actualización: 19/04/2018 20:55
NOT Current
Despejado
Despejado
 Viento del NE
Viento: NE 48 km/h
Temperatura: 3°C
Wind Chill: -4°C
Rocío: 1°C
Humedad: 87%
Barómetro: 1030 hPa
Resumen: Despejado
Visibility: greater than 10 km
2018/04/19 18:55 LIVC 191855Z 04026KT CAVOK 03/01 Q1030 RMK SKC MON LIB VAL FOSCHIA SKC SUP AUM VIS MIN 9999
LIRS - Grosseto, Italy
Distance from station: S 98km
Actualización: 21/04/2018 14:55
Few Clouds
Few Clouds
 Viento del SO
Viento: SO 22 km/h
Temperatura: 24°C
Rocío: 15°C
Humedad: 57%
Barómetro: 1018 hPa
Clouds: Few Clouds
Visibility: 10 km
Cloud details: Few Clouds 1219 m
2018/04/21 12:55 LIRS 211255Z 23012KT 9999 FEW040 24/15 Q1018